sensor_id;sensor_type;location;lat;lon;timestamp;P1;durP1;ratioP1;P2;durP2;ratioP2
23586;SDS011;11971;51.148;4.104;2024-01-30T14:49:01;0.65;;;0.50;;
23586;SDS011;11971;51.148;4.104;2024-01-30T14:51:01;0.65;;;0.65;;
23586;SDS011;11971;51.148;4.104;2024-01-30T14:51:14;0.93;;;0.80;;
23586;SDS011;11971;51.148;4.104;2024-01-30T14:51:25;0.85;;;0.73;;
23586;SDS011;11971;51.148;4.104;2024-01-30T14:51:35;0.90;;;0.60;;
23586;SDS011;11971;51.148;4.104;2024-01-30T14:51:46;1.95;;;0.70;;
23586;SDS011;11971;51.148;4.104;2024-01-30T14:51:57;2.20;;;0.90;;
23586;SDS011;11971;51.148;4.104;2024-01-30T15:04:47;0.88;;;0.63;;
23586;SDS011;11971;51.148;4.104;2024-01-30T15:05:00;2.28;;;0.80;;
23586;SDS011;11971;51.148;4.104;2024-01-30T15:05:11;2.10;;;0.88;;
23586;SDS011;11971;51.148;4.104;2024-01-30T15:05:22;1.52;;;0.90;;
23586;SDS011;11971;51.148;4.104;2024-01-30T15:05:32;1.27;;;0.90;;
23586;SDS011;11971;51.148;4.104;2024-01-30T15:05:43;1.10;;;0.90;;
23586;SDS011;11971;51.148;4.104;2024-01-30T15:05:54;1.70;;;0.90;;
23586;SDS011;11971;51.148;4.104;2024-01-30T15:06:05;1.80;;;1.00;;
23586;SDS011;11971;51.148;4.104;2024-01-30T15:06:17;2.50;;;1.00;;
23586;SDS011;11971;51.148;4.104;2024-01-30T15:06:28;2.67;;;0.97;;
23586;SDS011;11971;51.148;4.104;2024-01-30T15:06:40;3.07;;;1.00;;
23586;SDS011;11971;51.148;4.104;2024-01-30T15:06:55;4.53;;;1.02;;
23586;SDS011;11971;51.148;4.104;2024-01-30T15:07:06;4.17;;;1.00;;
23586;SDS011;11971;51.148;4.104;2024-01-30T15:07:17;2.13;;;0.90;;
23586;SDS011;11971;51.148;4.104;2024-01-30T15:07:28;2.38;;;1.00;;
23586;SDS011;11971;51.148;4.104;2024-01-30T15:07:39;3.42;;;1.00;;
23586;SDS011;11971;51.148;4.104;2024-01-30T15:07:50;2.78;;;1.05;;
23586;SDS011;11971;51.148;4.104;2024-01-30T16:53:25;10.20;;;1.35;;
23586;SDS011;11971;51.148;4.104;2024-01-30T16:53:37;5.82;;;1.55;;
23586;SDS011;11971;51.148;4.104;2024-01-30T16:53:48;7.07;;;1.80;;
23586;SDS011;11971;51.148;4.104;2024-01-30T16:53:58;5.37;;;2.03;;
23586;SDS011;11971;51.148;4.104;2024-01-30T16:54:10;5.82;;;2.30;;
23586;SDS011;11971;51.148;4.104;2024-01-30T16:54:21;4.28;;;2.30;;
23586;SDS011;11971;51.148;4.104;2024-01-30T16:54:32;3.93;;;2.10;;
23586;SDS011;11971;51.148;4.104;2024-01-30T16:54:42;3.72;;;2.08;;
23586;SDS011;11971;51.148;4.104;2024-01-30T16:54:53;3.30;;;2.20;;
23586;SDS011;11971;51.148;4.104;2024-01-30T16:55:05;3.53;;;2.30;;
23586;SDS011;11971;51.148;4.104;2024-01-30T16:55:16;3.90;;;2.20;;
23586;SDS011;11971;51.148;4.104;2024-01-30T16:55:28;5.00;;;2.28;;
23586;SDS011;11971;51.148;4.104;2024-01-30T16:55:39;4.47;;;2.03;;
23586;SDS011;11971;51.148;4.104;2024-01-30T16:55:50;4.00;;;2.00;;
23586;SDS011;11971;51.148;4.104;2024-01-30T16:56:00;2.88;;;2.03;;
23586;SDS011;11971;51.148;4.104;2024-01-30T16:56:11;2.83;;;2.17;;
23586;SDS011;11971;51.148;4.104;2024-01-30T16:56:21;2.50;;;2.10;;
23586;SDS011;11971;51.148;4.104;2024-01-30T16:56:32;2.87;;;2.10;;
23586;SDS011;11971;51.148;4.104;2024-01-30T16:56:42;5.00;;;2.10;;
23586;SDS011;11971;51.148;4.104;2024-01-30T16:56:57;7.00;;;2.35;;
23586;SDS011;11971;51.148;4.104;2024-01-30T16:57:08;6.00;;;2.40;;
23586;SDS011;11971;51.148;4.104;2024-01-30T16:57:19;5.03;;;2.10;;
23586;SDS011;11971;51.148;4.104;2024-01-30T16:57:29;4.63;;;1.80;;
23586;SDS011;11971;51.148;4.104;2024-01-30T16:57:40;4.03;;;1.80;;
23586;SDS011;11971;51.148;4.104;2024-01-30T16:57:50;3.83;;;2.10;;
23586;SDS011;11971;51.148;4.104;2024-01-30T16:58:01;3.70;;;2.30;;
23586;SDS011;11971;51.148;4.104;2024-01-30T16:58:12;5.37;;;2.40;;
23586;SDS011;11971;51.148;4.104;2024-01-30T16:58:22;4.93;;;2.40;;
23586;SDS011;11971;51.148;4.104;2024-01-30T16:58:33;5.30;;;2.50;;
23586;SDS011;11971;51.148;4.104;2024-01-30T16:58:44;3.90;;;2.33;;
23586;SDS011;11971;51.148;4.104;2024-01-30T16:58:55;3.60;;;2.20;;
23586;SDS011;11971;51.148;4.104;2024-01-30T16:59:06;4.72;;;2.30;;
23586;SDS011;11971;51.148;4.104;2024-01-30T16:59:16;5.80;;;2.20;;
23586;SDS011;11971;51.148;4.104;2024-01-30T16:59:28;7.90;;;2.10;;
23586;SDS011;11971;51.148;4.104;2024-01-30T16:59:39;6.80;;;1.88;;
23586;SDS011;11971;51.148;4.104;2024-01-30T16:59:49;5.97;;;2.08;;
23586;SDS011;11971;51.148;4.104;2024-01-30T17:00:00;4.33;;;2.13;;
23586;SDS011;11971;51.148;4.104;2024-01-30T17:00:11;3.65;;;2.08;;
23586;SDS011;11971;51.148;4.104;2024-01-30T17:00:22;3.80;;;2.38;;
23586;SDS011;11971;51.148;4.104;2024-01-30T17:00:34;4.95;;;2.50;;
23586;SDS011;11971;51.148;4.104;2024-01-30T17:00:45;4.75;;;2.42;;
23586;SDS011;11971;51.148;4.104;2024-01-30T17:00:56;3.40;;;2.20;;
23586;SDS011;11971;51.148;4.104;2024-01-30T17:01:07;2.92;;;2.17;;
23586;SDS011;11971;51.148;4.104;2024-01-30T17:01:18;3.13;;;2.20;;
23586;SDS011;11971;51.148;4.104;2024-01-30T17:01:28;3.78;;;2.03;;
23586;SDS011;11971;51.148;4.104;2024-01-30T17:01:39;4.78;;;2.08;;
23586;SDS011;11971;51.148;4.104;2024-01-30T17:01:53;5.57;;;2.33;;
23586;SDS011;11971;51.148;4.104;2024-01-30T17:02:04;6.95;;;2.50;;
23586;SDS011;11971;51.148;4.104;2024-01-30T17:02:14;6.23;;;2.60;;
23586;SDS011;11971;51.148;4.104;2024-01-30T17:02:25;7.00;;;2.88;;
23586;SDS011;11971;51.148;4.104;2024-01-30T17:02:36;6.78;;;2.88;;
23586;SDS011;11971;51.148;4.104;2024-01-30T17:02:47;4.83;;;2.43;;
23586;SDS011;11971;51.148;4.104;2024-01-30T17:02:58;4.60;;;2.40;;
